sensor_id;sensor_type;location;lat;lon;timestamp;pressure;altitude;pressure_sealevel;temperature;humidity
69214;BME280;56325;47.030;18.518;2023-02-15T00:01:05;102262.34;;;1.47;80.07
69214;BME280;56325;47.030;18.518;2023-02-15T00:03:40;102254.75;;;1.52;80.09
69214;BME280;56325;47.030;18.518;2023-02-15T00:06:16;102255.34;;;1.46;80.10
69214;BME280;56325;47.030;18.518;2023-02-15T00:08:51;102255.38;;;1.61;79.70
69214;BME280;56325;47.030;18.518;2023-02-15T00:11:26;102254.75;;;1.68;79.12
69214;BME280;56325;47.030;18.518;2023-02-15T00:14:23;102256.50;;;1.60;79.12
69214;BME280;56325;47.030;18.518;2023-02-15T00:16:58;102252.38;;;1.51;79.61
69214;BME280;56325;47.030;18.518;2023-02-15T00:19:32;102258.13;;;1.34;80.06
69214;BME280;56325;47.030;18.518;2023-02-15T00:22:08;102256.53;;;1.33;80.38
69214;BME280;56325;47.030;18.518;2023-02-15T00:24:43;102247.56;;;1.44;79.65
69214;BME280;56325;47.030;18.518;2023-02-15T00:27:17;102248.59;;;1.40;79.60
69214;BME280;56325;47.030;18.518;2023-02-15T00:29:52;102246.69;;;1.40;79.49
69214;BME280;56325;47.030;18.518;2023-02-15T00:32:26;102251.13;;;1.33;79.12
69214;BME280;56325;47.030;18.518;2023-02-15T00:35:01;102249.16;;;1.17;79.71
69214;BME280;56325;47.030;18.518;2023-02-15T00:37:36;102250.47;;;0.95;79.86
69214;BME280;56325;47.030;18.518;2023-02-15T00:40:11;102241.28;;;1.12;79.64
69214;BME280;56325;47.030;18.518;2023-02-15T00:42:47;102247.56;;;1.16;79.13
69214;BME280;56325;47.030;18.518;2023-02-15T00:45:22;102240.88;;;0.98;78.82
69214;BME280;56325;47.030;18.518;2023-02-15T00:47:57;102239.09;;;0.90;79.31
69214;BME280;56325;47.030;18.518;2023-02-15T00:50:31;102238.31;;;0.89;80.07
69214;BME280;56325;47.030;18.518;2023-02-15T00:53:07;102242.06;;;0.85;79.93
69214;BME280;56325;47.030;18.518;2023-02-15T00:55:41;102236.03;;;0.91;79.76
69214;BME280;56325;47.030;18.518;2023-02-15T00:58:16;102239.00;;;0.86;80.12
69214;BME280;56325;47.030;18.518;2023-02-15T01:00:51;102237.78;;;0.84;79.98
69214;BME280;56325;47.030;18.518;2023-02-15T01:03:28;102234.63;;;0.82;80.10
69214;BME280;56325;47.030;18.518;2023-02-15T01:06:03;102237.34;;;0.82;79.96
69214;BME280;56325;47.030;18.518;2023-02-15T01:08:40;102236.69;;;1.01;78.67
69214;BME280;56325;47.030;18.518;2023-02-15T01:11:16;102238.31;;;0.89;78.46
69214;BME280;56325;47.030;18.518;2023-02-15T01:13:56;102230.34;;;0.81;78.47
69214;BME280;56325;47.030;18.518;2023-02-15T01:16:30;102235.16;;;0.87;77.88
69214;BME280;56325;47.030;18.518;2023-02-15T01:19:05;102230.81;;;0.71;78.46
69214;BME280;56325;47.030;18.518;2023-02-15T01:21:40;102231.16;;;0.69;78.65
69214;BME280;56325;47.030;18.518;2023-02-15T01:24:16;102224.06;;;0.64;78.97
69214;BME280;56325;47.030;18.518;2023-02-15T01:26:50;102224.97;;;0.69;79.12
69214;BME280;56325;47.030;18.518;2023-02-15T01:29:25;102223.72;;;0.66;78.68
69214;BME280;56325;47.030;18.518;2023-02-15T01:32:00;102223.06;;;0.57;78.40
69214;BME280;56325;47.030;18.518;2023-02-15T01:34:34;102219.22;;;0.58;78.69
69214;BME280;56325;47.030;18.518;2023-02-15T01:37:09;102212.91;;;0.54;78.50
69214;BME280;56325;47.030;18.518;2023-02-15T01:39:44;102223.66;;;0.50;78.61
69214;BME280;56325;47.030;18.518;2023-02-15T01:42:21;102221.50;;;0.44;78.65
69214;BME280;56325;47.030;18.518;2023-02-15T01:44:57;102214.16;;;0.56;78.48
69214;BME280;56325;47.030;18.518;2023-02-15T01:47:36;102208.56;;;0.37;79.18
69214;BME280;56325;47.030;18.518;2023-02-15T01:50:16;102206.19;;;0.36;79.60
69214;BME280;56325;47.030;18.518;2023-02-15T01:52:55;102204.47;;;0.43;79.38
69214;BME280;56325;47.030;18.518;2023-02-15T01:55:38;102197.72;;;0.49;78.47
69214;BME280;56325;47.030;18.518;2023-02-15T01:58:14;102199.28;;;0.50;78.65
69214;BME280;56325;47.030;18.518;2023-02-15T02:00:48;102202.59;;;0.31;79.06
69214;BME280;56325;47.030;18.518;2023-02-15T02:03:29;102199.25;;;0.62;78.36
69214;BME280;56325;47.030;18.518;2023-02-15T02:06:08;102204.72;;;0.26;79.35
69214;BME280;56325;47.030;18.518;2023-02-15T02:08:45;102203.72;;;0.18;80.16
69214;BME280;56325;47.030;18.518;2023-02-15T02:11:21;102199.19;;;0.35;80.00
69214;BME280;56325;47.030;18.518;2023-02-15T02:13:56;102205.19;;;0.16;79.67
69214;BME280;56325;47.030;18.518;2023-02-15T02:16:37;102199.34;;;0.02;80.43
69214;BME280;56325;47.030;18.518;2023-02-15T02:19:36;102190.06;;;0.27;79.72
69214;BME280;56325;47.030;18.518;2023-02-15T02:22:44;102198.19;;;0.39;78.96
69214;BME280;56325;47.030;18.518;2023-02-15T02:25:45;102192.81;;;0.67;77.94
69214;BME280;56325;47.030;18.518;2023-02-15T02:28:41;102196.91;;;0.49;77.93
69214;BME280;56325;47.030;18.518;2023-02-15T02:31:39;102193.13;;;0.25;78.64
69214;BME280;56325;47.030;18.518;2023-02-15T02:34:26;102210.91;;;0.39;79.01
69214;BME280;56325;47.030;18.518;2023-02-15T02:37:10;102208.81;;;0.20;78.90
69214;BME280;56325;47.030;18.518;2023-02-15T02:39:53;102209.72;;;0.12;80.29
69214;BME280;56325;47.030;18.518;2023-02-15T02:42:35;102203.72;;;0.30;80.15
69214;BME280;56325;47.030;18.518;2023-02-15T02:45:14;102205.44;;;0.11;80.37
69214;BME280;56325;47.030;18.518;2023-02-15T02:47:53;102203.37;;;0.32;79.15
69214;BME280;56325;47.030;18.518;2023-02-15T02:50:31;102201.78;;;0.31;78.75
69214;BME280;56325;47.030;18.518;2023-02-15T02:53:06;102202.03;;;0.26;78.69
69214;BME280;56325;47.030;18.518;2023-02-15T02:55:43;102203.72;;;0.30;78.65
69214;BME280;56325;47.030;18.518;2023-02-15T02:58:22;102201.22;;;0.38;78.51
69214;BME280;56325;47.030;18.518;2023-02-15T03:01:01;102198.88;;;0.12;78.79
69214;BME280;56325;47.030;18.518;2023-02-15T03:03:41;102199.09;;;0.19;78.66
69214;BME280;56325;47.030;18.518;2023-02-15T03:06:21;102206.44;;;0.06;79.74
69214;BME280;56325;47.030;18.518;2023-02-15T03:09:08;102205.00;;;-0.16;79.73
69214;BME280;56325;47.030;18.518;2023-02-15T03:11:47;102199.13;;;-0.30;80.31
69214;BME280;56325;47.030;18.518;2023-02-15T03:14:22;102200.72;;;-0.05;81.07
69214;BME280;56325;47.030;18.518;2023-02-15T03:16:58;102193.84;;;-0.02;80.69
69214;BME280;56325;47.030;18.518;2023-02-15T03:19:35;102194.38;;;0.04;80.50
69214;BME280;56325;47.030;18.518;2023-02-15T03:22:14;102199.72;;;-0.12;81.40
69214;BME280;56325;47.030;18.518;2023-02-15T03:24:56;102196.63;;;0.02;81.38
69214;BME280;56325;47.030;18.518;2023-02-15T03:27:34;102195.87;;;-0.11;80.52
69214;BME280;56325;47.030;18.518;2023-02-15T03:30:11;102199.25;;;-0.02;81.05
69214;BME280;56325;47.030;18.518;2023-02-15T03:32:48;102200.72;;;-0.05;79.90
69214;BME280;56325;47.030;18.518;2023-02-15T03:35:26;102201.38;;;0.05;80.24
69214;BME280;56325;47.030;18.518;2023-02-15T03:38:07;102204.19;;;0.08;79.90
69214;BME280;56325;47.030;18.518;2023-02-15T03:40:44;102203.16;;;0.00;80.00
69214;BME280;56325;47.030;18.518;2023-02-15T03:43:44;102206.13;;;-0.05;79.66
69214;BME280;56325;47.030;18.518;2023-02-15T03:46:24;102202.63;;;-0.05;80.12
69214;BME280;56325;47.030;18.518;2023-02-15T03:49:03;102199.34;;;0.14;78.92
69214;BME280;56325;47.030;18.518;2023-02-15T03:51:40;102194.94;;;0.09;78.54
69214;BME280;56325;47.030;18.518;2023-02-15T03:54:20;102192.56;;;0.08;78.50
69214;BME280;56325;47.030;18.518;2023-02-15T03:57:12;102196.19;;;0.12;78.32
69214;BME280;56325;47.030;18.518;2023-02-15T04:00:09;102210.94;;;0.02;78.60
69214;BME280;56325;47.030;18.518;2023-02-15T04:03:11;102197.09;;;0.04;78.46
69214;BME280;56325;47.030;18.518;2023-02-15T04:05:46;102209.03;;;0.15;78.21
69214;BME280;56325;47.030;18.518;2023-02-15T04:08:21;102206.44;;;0.06;77.92
69214;BME280;56325;47.030;18.518;2023-02-15T04:11:17;102197.97;;;0.20;77.39
69214;BME280;56325;47.030;18.518;2023-02-15T04:13:50;102206.31;;;0.03;78.13
69214;BME280;56325;47.030;18.518;2023-02-15T04:16:29;102198.56;;;0.01;78.17
69214;BME280;56325;47.030;18.518;2023-02-15T04:19:03;102189.56;;;-0.03;78.65
69214;BME280;56325;47.030;18.518;2023-02-15T04:21:55;102196.88;;;-0.04;78.21
69214;BME280;56325;47.030;18.518;2023-02-15T04:24:47;102200.38;;;-0.15;78.58
69214;BME280;56325;47.030;18.518;2023-02-15T04:27:42;102195.63;;;-0.30;78.77
69214;BME280;56325;47.030;18.518;2023-02-15T04:30:18;102204.22;;;-0.16;78.57
69214;BME280;56325;47.030;18.518;2023-02-15T04:32:53;102209.19;;;-0.06;78.25
69214;BME280;56325;47.030;18.518;2023-02-15T04:35:28;102203.19;;;-0.24;78.90
69214;BME280;56325;47.030;18.518;2023-02-15T04:38:04;102171.38;;;5.85;100.00
69214;BME280;56325;47.030;18.518;2023-02-15T04:40:39;102192.25;;;4.52;100.00
69214;BME280;56325;47.030;18.518;2023-02-15T04:43:14;102204.31;;;2.69;94.91
69214;BME280;56325;47.030;18.518;2023-02-15T04:45:49;102212.31;;;1.44;90.30
69214;BME280;56325;47.030;18.518;2023-02-15T04:48:24;102208.94;;;1.19;93.40
69214;BME280;56325;47.030;18.518;2023-02-15T04:50:58;102198.38;;;0.58;87.02
69214;BME280;56325;47.030;18.518;2023-02-15T04:53:32;102199.66;;;0.24;83.80
69214;BME280;56325;47.030;18.518;2023-02-15T04:56:07;102197.53;;;0.18;83.53
69214;BME280;56325;47.030;18.518;2023-02-15T04:58:43;102204.06;;;0.17;82.68
69214;BME280;56325;47.030;18.518;2023-02-15T05:01:18;102200.03;;;-0.02;81.97
69214;BME280;56325;47.030;18.518;2023-02-15T05:03:52;102200.84;;;-0.01;81.27
69214;BME280;56325;47.030;18.518;2023-02-15T05:06:26;102205.47;;;-0.02;80.64
69214;BME280;56325;47.030;18.518;2023-02-15T05:09:01;102201.41;;;-0.08;80.09
69214;BME280;56325;47.030;18.518;2023-02-15T05:11:35;102203.53;;;-0.13;80.26
69214;BME280;56325;47.030;18.518;2023-02-15T05:14:11;102197.78;;;-0.24;80.45
69214;BME280;56325;47.030;18.518;2023-02-15T05:16:46;102161.09;;;5.68;100.00
69214;BME280;56325;47.030;18.518;2023-02-15T05:19:20;102189.13;;;3.25;100.00
69214;BME280;56325;47.030;18.518;2023-02-15T05:21:56;102170.03;;;6.16;100.00
69214;BME280;56325;47.030;18.518;2023-02-15T05:24:30;102192.91;;;3.40;95.17
69214;BME280;56325;47.030;18.518;2023-02-15T05:27:22;102204.56;;;2.25;92.00
69214;BME280;56325;47.030;18.518;2023-02-15T05:30:16;102213.63;;;1.35;85.57
69214;BME280;56325;47.030;18.518;2023-02-15T05:32:50;102217.41;;;0.90;83.90
69214;BME280;56325;47.030;18.518;2023-02-15T05:35:25;102221.84;;;0.54;83.96
69214;BME280;56325;47.030;18.518;2023-02-15T05:38:04;102196.41;;;5.47;100.00
69214;BME280;56325;47.030;18.518;2023-02-15T05:40:38;102200.75;;;2.84;94.18
69214;BME280;56325;47.030;18.518;2023-02-15T05:43:15;102209.00;;;1.82;87.89
69214;BME280;56325;47.030;18.518;2023-02-15T05:45:52;102224.56;;;1.10;82.29
69214;BME280;56325;47.030;18.518;2023-02-15T05:48:27;102214.97;;;0.85;84.50
69214;BME280;56325;47.030;18.518;2023-02-15T05:51:03;102222.06;;;0.49;82.01
69214;BME280;56325;47.030;18.518;2023-02-15T05:53:39;102224.81;;;0.25;82.18
69214;BME280;56325;47.030;18.518;2023-02-15T05:56:13;102226.06;;;-0.09;81.13
69214;BME280;56325;47.030;18.518;2023-02-15T05:58:48;102226.63;;;-0.28;82.58
69214;BME280;56325;47.030;18.518;2023-02-15T06:01:23;102228.66;;;-0.13;81.97
69214;BME280;56325;47.030;18.518;2023-02-15T06:03:58;102216.87;;;3.80;100.00
69214;BME280;56325;47.030;18.518;2023-02-15T06:06:32;102238.56;;;1.87;96.33
69214;BME280;56325;47.030;18.518;2023-02-15T06:09:07;102252.28;;;0.63;86.25
69214;BME280;56325;47.030;18.518;2023-02-15T06:11:42;102252.78;;;-0.08;82.84
69214;BME280;56325;47.030;18.518;2023-02-15T06:14:16;102257.94;;;-0.15;82.64
69214;BME280;56325;47.030;18.518;2023-02-15T06:16:52;102250.94;;;-0.28;81.44
69214;BME280;56325;47.030;18.518;2023-02-15T06:19:26;102244.66;;;-0.08;83.11
69214;BME280;56325;47.030;18.518;2023-02-15T06:22:01;102246.91;;;-0.10;82.30
69214;BME280;56325;47.030;18.518;2023-02-15T06:24:35;102253.06;;;-0.34;81.43
69214;BME280;56325;47.030;18.518;2023-02-15T06:27:10;102258.97;;;-0.64;82.52
69214;BME280;56325;47.030;18.518;2023-02-15T06:29:44;102262.19;;;-0.71;82.66
69214;BME280;56325;47.030;18.518;2023-02-15T06:32:20;102261.63;;;-0.77;83.37
69214;BME280;56325;47.030;18.518;2023-02-15T06:34:55;102262.38;;;-0.55;83.68
69214;BME280;56325;47.030;18.518;2023-02-15T06:37:29;102261.75;;;-0.28;82.93
69214;BME280;56325;47.030;18.518;2023-02-15T06:40:04;102256.94;;;-0.10;82.50
69214;BME280;56325;47.030;18.518;2023-02-15T06:42:39;102260.66;;;-0.03;81.69
69214;BME280;56325;47.030;18.518;2023-02-15T06:45:14;102253.87;;;0.16;81.64
69214;BME280;56325;47.030;18.518;2023-02-15T06:47:50;102252.75;;;0.29;81.05
69214;BME280;56325;47.030;18.518;2023-02-15T06:50:24;102250.03;;;0.41;80.30
69214;BME280;56325;47.030;18.518;2023-02-15T06:52:59;102256.59;;;0.28;81.36
69214;BME280;56325;47.030;18.518;2023-02-15T06:55:33;102253.87;;;0.40;81.25
69214;BME280;56325;47.030;18.518;2023-02-15T06:58:07;102250.91;;;0.70;80.27
69214;BME280;56325;47.030;18.518;2023-02-15T07:03:24;102253.81;;;1.33;78.70
69214;BME280;56325;47.030;18.518;2023-02-15T07:06:00;102253.81;;;1.33;78.70
69214;BME280;56325;47.030;18.518;2023-02-15T07:08:37;102249.94;;;0.90;79.62
69214;BME280;56325;47.030;18.518;2023-02-15T07:11:12;102252.84;;;0.97;79.67
69214;BME280;56325;47.030;18.518;2023-02-15T07:14:04;102256.44;;;1.01;80.03
69214;BME280;56325;47.030;18.518;2023-02-15T07:16:38;102251.66;;;1.10;80.31
69214;BME280;56325;47.030;18.518;2023-02-15T07:19:14;102257.72;;;1.19;80.63
69214;BME280;56325;47.030;18.518;2023-02-15T07:21:48;102254.06;;;1.27;80.97
69214;BME280;56325;47.030;18.518;2023-02-15T07:24:23;102259.59;;;1.31;80.98
69214;BME280;56325;47.030;18.518;2023-02-15T07:26:57;102260.56;;;1.39;81.41
69214;BME280;56325;47.030;18.518;2023-02-15T07:29:31;102259.19;;;1.45;80.36
69214;BME280;56325;47.030;18.518;2023-02-15T07:32:06;102255.00;;;1.47;80.79
69214;BME280;56325;47.030;18.518;2023-02-15T07:34:42;102252.12;;;1.56;80.24
69214;BME280;56325;47.030;18.518;2023-02-15T07:37:16;102250.37;;;1.63;80.88
69214;BME280;56325;47.030;18.518;2023-02-15T07:39:51;102245.31;;;1.62;81.14
69214;BME280;56325;47.030;18.518;2023-02-15T07:42:25;102246.28;;;1.70;81.37
69214;BME280;56325;47.030;18.518;2023-02-15T07:45:00;102243.81;;;1.64;82.11
69214;BME280;56325;47.030;18.518;2023-02-15T07:47:34;102240.78;;;1.66;82.66
69214;BME280;56325;47.030;18.518;2023-02-15T07:50:10;102228.16;;;1.74;83.08
69214;BME280;56325;47.030;18.518;2023-02-15T07:52:45;102239.09;;;1.77;83.29
69214;BME280;56325;47.030;18.518;2023-02-15T07:55:19;102231.59;;;1.71;83.62
69214;BME280;56325;47.030;18.518;2023-02-15T07:57:54;102245.22;;;1.74;84.04
69214;BME280;56325;47.030;18.518;2023-02-15T08:00:28;102241.72;;;1.74;84.33
69214;BME280;56325;47.030;18.518;2023-02-15T08:03:03;102234.34;;;1.74;84.58
69214;BME280;56325;47.030;18.518;2023-02-15T08:05:51;102252.81;;;1.53;85.58
69214;BME280;56325;47.030;18.518;2023-02-15T08:08:26;102241.72;;;1.58;86.18
69214;BME280;56325;47.030;18.518;2023-02-15T08:11:05;102234.00;;;1.76;85.75
69214;BME280;56325;47.030;18.518;2023-02-15T08:13:59;102245.50;;;1.69;86.26
69214;BME280;56325;47.030;18.518;2023-02-15T08:16:36;102244.69;;;1.84;86.36
69214;BME280;56325;47.030;18.518;2023-02-15T08:19:13;102241.19;;;2.00;84.94
69214;BME280;56325;47.030;18.518;2023-02-15T08:21:51;102246.78;;;2.07;85.18
69214;BME280;56325;47.030;18.518;2023-02-15T08:24:27;102245.38;;;2.13;85.63
69214;BME280;56325;47.030;18.518;2023-02-15T08:27:02;102246.59;;;2.15;86.63
69214;BME280;56325;47.030;18.518;2023-02-15T08:29:38;102238.88;;;2.33;86.21
69214;BME280;56325;47.030;18.518;2023-02-15T08:32:15;102241.41;;;2.42;85.82
69214;BME280;56325;47.030;18.518;2023-02-15T08:34:49;102242.00;;;2.70;84.80
69214;BME280;56325;47.030;18.518;2023-02-15T08:37:25;102230.63;;;2.84;84.80
69214;BME280;56325;47.030;18.518;2023-02-15T08:40:00;102235.38;;;3.06;83.74
69214;BME280;56325;47.030;18.518;2023-02-15T08:42:35;102230.34;;;3.08;84.23
69214;BME280;56325;47.030;18.518;2023-02-15T08:45:09;102221.47;;;3.31;83.25
69214;BME280;56325;47.030;18.518;2023-02-15T08:47:44;102227.19;;;3.48;82.19
69214;BME280;56325;47.030;18.518;2023-02-15T08:50:18;102223.03;;;3.54;82.08
69214;BME280;56325;47.030;18.518;2023-02-15T08:52:55;102222.25;;;3.54;82.48
69214;BME280;56325;47.030;18.518;2023-02-15T08:55:31;102225.09;;;3.61;82.44
69214;BME280;56325;47.030;18.518;2023-02-15T08:58:05;102228.53;;;3.58;82.85
69214;BME280;56325;47.030;18.518;2023-02-15T09:00:39;102223.22;;;3.65;82.73
69214;BME280;56325;47.030;18.518;2023-02-15T09:03:14;102218.06;;;3.60;84.38
69214;BME280;56325;47.030;18.518;2023-02-15T09:05:49;102225.03;;;3.80;83.22
69214;BME280;56325;47.030;18.518;2023-02-15T09:08:25;102218.06;;;4.06;82.27
69214;BME280;56325;47.030;18.518;2023-02-15T09:11:08;102211.19;;;4.15;82.55
69214;BME280;56325;47.030;18.518;2023-02-15T09:13:43;102218.94;;;4.70;88.55
69214;BME280;56325;47.030;18.518;2023-02-15T09:16:18;102208.97;;;8.78;100.00
69214;BME280;56325;47.030;18.518;2023-02-15T09:18:53;102217.34;;;7.21;96.62
69214;BME280;56325;47.030;18.518;2023-02-15T09:21:28;102207.03;;;9.48;97.33
69214;BME280;56325;47.030;18.518;2023-02-15T09:24:06;102211.91;;;8.07;86.87
69214;BME280;56325;47.030;18.518;2023-02-15T09:26:42;102216.91;;;7.09;77.93
69214;BME280;56325;47.030;18.518;2023-02-15T09:29:19;102212.78;;;6.49;77.03
69214;BME280;56325;47.030;18.518;2023-02-15T09:31:53;102226.31;;;5.77;77.76
69214;BME280;56325;47.030;18.518;2023-02-15T09:34:28;102217.16;;;5.99;78.05
69214;BME280;56325;47.030;18.518;2023-02-15T09:37:06;102232.75;;;5.99;77.21
69214;BME280;56325;47.030;18.518;2023-02-15T09:39:43;102222.50;;;5.88;78.07
69214;BME280;56325;47.030;18.518;2023-02-15T09:45:40;102222.56;;;5.92;77.05
69214;BME280;56325;47.030;18.518;2023-02-15T09:48:41;102208.22;;;6.09;77.20
69214;BME280;56325;47.030;18.518;2023-02-15T09:51:39;102208.25;;;6.13;74.74
69214;BME280;56325;47.030;18.518;2023-02-15T09:54:31;102207.25;;;6.39;74.65
69214;BME280;56325;47.030;18.518;2023-02-15T09:57:15;102214.78;;;6.60;73.22
69214;BME280;56325;47.030;18.518;2023-02-15T10:00:02;102202.97;;;6.45;71.66
69214;BME280;56325;47.030;18.518;2023-02-15T10:03:00;102200.28;;;6.52;70.79
69214;BME280;56325;47.030;18.518;2023-02-15T10:05:51;102203.50;;;6.68;71.30
69214;BME280;56325;47.030;18.518;2023-02-15T10:09:02;102194.50;;;6.68;69.65
69214;BME280;56325;47.030;18.518;2023-02-15T10:11:50;102188.59;;;6.55;71.91
69214;BME280;56325;47.030;18.518;2023-02-15T10:15:19;102197.25;;;6.68;71.13
69214;BME280;56325;47.030;18.518;2023-02-15T10:18:09;102187.78;;;6.47;70.69
69214;BME280;56325;47.030;18.518;2023-02-15T10:20:55;102184.38;;;6.72;70.87
69214;BME280;56325;47.030;18.518;2023-02-15T10:23:42;102176.63;;;7.02;69.92
69214;BME280;56325;47.030;18.518;2023-02-15T10:26:21;102173.53;;;7.11;67.80
69214;BME280;56325;47.030;18.518;2023-02-15T10:28:59;102172.00;;;7.31;68.71
69214;BME280;56325;47.030;18.518;2023-02-15T10:31:43;102164.19;;;7.26;67.66
69214;BME280;56325;47.030;18.518;2023-02-15T10:34:20;102166.56;;;7.49;68.57
69214;BME280;56325;47.030;18.518;2023-02-15T10:37:15;102161.81;;;7.10;67.58
69214;BME280;56325;47.030;18.518;2023-02-15T10:39:59;102156.38;;;7.24;67.65
69214;BME280;56325;47.030;18.518;2023-02-15T10:42:45;102151.69;;;7.32;67.04
69214;BME280;56325;47.030;18.518;2023-02-15T10:45:29;102157.50;;;7.13;66.65
69214;BME280;56325;47.030;18.518;2023-02-15T10:48:29;102148.16;;;7.21;67.81
69214;BME280;56325;47.030;18.518;2023-02-15T10:51:08;102154.00;;;7.09;66.67
69214;BME280;56325;47.030;18.518;2023-02-15T10:53:57;102149.31;;;7.23;66.53
69214;BME280;56325;47.030;18.518;2023-02-15T10:56:39;102146.81;;;9.19;95.29
69214;BME280;56325;47.030;18.518;2023-02-15T10:59:31;102136.53;;;10.81;92.07
69214;BME280;56325;47.030;18.518;2023-02-15T11:02:16;102134.44;;;10.31;64.75
69214;BME280;56325;47.030;18.518;2023-02-15T11:05:01;102142.19;;;9.09;63.37
69214;BME280;56325;47.030;18.518;2023-02-15T11:07:43;102144.84;;;8.58;65.39
69214;BME280;56325;47.030;18.518;2023-02-15T11:10:27;102128.47;;;8.29;67.28
69214;BME280;56325;47.030;18.518;2023-02-15T11:13:08;102131.59;;;8.31;65.56
69214;BME280;56325;47.030;18.518;2023-02-15T11:15:45;102119.09;;;8.23;66.16
69214;BME280;56325;47.030;18.518;2023-02-15T11:18:26;102121.34;;;8.57;64.63
69214;BME280;56325;47.030;18.518;2023-02-15T11:21:08;102112.00;;;8.43;64.10
69214;BME280;56325;47.030;18.518;2023-02-15T11:23:45;102106.94;;;8.24;66.02
69214;BME280;56325;47.030;18.518;2023-02-15T11:26:24;102113.59;;;8.27;65.60
69214;BME280;56325;47.030;18.518;2023-02-15T11:29:07;102104.13;;;8.49;64.80
69214;BME280;56325;47.030;18.518;2023-02-15T11:31:46;102092.34;;;8.56;65.64
69214;BME280;56325;47.030;18.518;2023-02-15T11:34:27;102099.06;;;8.44;63.13
69214;BME280;56325;47.030;18.518;2023-02-15T11:37:10;102090.09;;;8.36;64.57
69214;BME280;56325;47.030;18.518;2023-02-15T11:39:45;102087.75;;;8.38;64.10
69214;BME280;56325;47.030;18.518;2023-02-15T11:42:25;102084.37;;;8.79;64.57
69214;BME280;56325;47.030;18.518;2023-02-15T11:45:07;102080.81;;;8.82;62.52
69214;BME280;56325;47.030;18.518;2023-02-15T11:47:50;102079.41;;;8.60;63.38
69214;BME280;56325;47.030;18.518;2023-02-15T11:50:27;102079.62;;;8.86;63.19
69214;BME280;56325;47.030;18.518;2023-02-15T11:53:04;102080.78;;;8.89;62.83
69214;BME280;56325;47.030;18.518;2023-02-15T11:55:42;102077.47;;;9.15;61.80
69214;BME280;56325;47.030;18.518;2023-02-15T11:58:25;102060.41;;;9.38;61.94
69214;BME280;56325;47.030;18.518;2023-02-15T12:01:09;102048.84;;;11.30;88.07
69214;BME280;56325;47.030;18.518;2023-02-15T12:03:51;102037.03;;;12.68;83.73
69214;BME280;56325;47.030;18.518;2023-02-15T12:06:28;102036.22;;;12.15;58.37
69214;BME280;56325;47.030;18.518;2023-02-15T12:09:09;102038.03;;;11.19;58.29
69214;BME280;56325;47.030;18.518;2023-02-15T12:11:47;102040.47;;;10.90;58.08
69214;BME280;56325;47.030;18.518;2023-02-15T12:14:22;102035.19;;;10.49;59.42
69214;BME280;56325;47.030;18.518;2023-02-15T12:16:56;102035.69;;;10.40;58.97
69214;BME280;56325;47.030;18.518;2023-02-15T12:19:33;102033.97;;;10.50;57.84
69214;BME280;56325;47.030;18.518;2023-02-15T12:22:21;102031.03;;;10.37;57.70
69214;BME280;56325;47.030;18.518;2023-02-15T12:25:00;102021.38;;;10.52;57.75
69214;BME280;56325;47.030;18.518;2023-02-15T12:27:35;102014.97;;;10.86;57.15
69214;BME280;56325;47.030;18.518;2023-02-15T12:30:18;102020.09;;;10.61;57.83
69214;BME280;56325;47.030;18.518;2023-02-15T12:32:57;102024.13;;;10.52;58.08
69214;BME280;56325;47.030;18.518;2023-02-15T12:35:35;102022.75;;;10.91;57.18
69214;BME280;56325;47.030;18.518;2023-02-15T12:38:21;102015.50;;;10.50;56.80
69214;BME280;56325;47.030;18.518;2023-02-15T12:41:01;102013.44;;;10.85;55.95
69214;BME280;56325;47.030;18.518;2023-02-15T12:43:37;102008.06;;;11.01;55.77
69214;BME280;56325;47.030;18.518;2023-02-15T12:46:23;102010.81;;;11.25;54.74
69214;BME280;56325;47.030;18.518;2023-02-15T12:49:16;102009.37;;;11.16;54.82
69214;BME280;56325;47.030;18.518;2023-02-15T12:51:54;102009.69;;;11.42;55.03
69214;BME280;56325;47.030;18.518;2023-02-15T12:54:35;101995.00;;;11.05;56.06
69214;BME280;56325;47.030;18.518;2023-02-15T12:57:22;101996.19;;;11.04;55.03
69214;BME280;56325;47.030;18.518;2023-02-15T12:59:59;101987.25;;;11.63;54.35
69214;BME280;56325;47.030;18.518;2023-02-15T13:02:41;101990.72;;;11.67;53.92
69214;BME280;56325;47.030;18.518;2023-02-15T13:05:19;101985.69;;;11.62;53.08
69214;BME280;56325;47.030;18.518;2023-02-15T13:07:58;101979.84;;;11.17;53.86
69214;BME280;56325;47.030;18.518;2023-02-15T13:10:39;101972.34;;;11.61;53.82
69214;BME280;56325;47.030;18.518;2023-02-15T13:13:19;101978.59;;;11.22;53.50
69214;BME280;56325;47.030;18.518;2023-02-15T13:15:58;101976.37;;;10.90;55.30
69214;BME280;56325;47.030;18.518;2023-02-15T13:18:36;101984.34;;;11.07;54.16
69214;BME280;56325;47.030;18.518;2023-02-15T13:21:13;101972.31;;;10.98;55.05
69214;BME280;56325;47.030;18.518;2023-02-15T13:23:51;101964.84;;;11.61;54.72
69214;BME280;56325;47.030;18.518;2023-02-15T13:26:29;101963.72;;;11.98;53.74
69214;BME280;56325;47.030;18.518;2023-02-15T13:29:11;101953.97;;;13.82;76.15
69214;BME280;56325;47.030;18.518;2023-02-15T13:31:50;101946.81;;;15.07;71.26
69214;BME280;56325;47.030;18.518;2023-02-15T13:34:30;101959.16;;;13.38;50.37
69214;BME280;56325;47.030;18.518;2023-02-15T13:37:10;101965.25;;;12.35;52.84
69214;BME280;56325;47.030;18.518;2023-02-15T13:39:50;101960.44;;;12.39;52.86
69214;BME280;56325;47.030;18.518;2023-02-15T13:42:31;101965.13;;;12.06;52.85
69214;BME280;56325;47.030;18.518;2023-02-15T13:45:26;101963.78;;;12.31;52.51
69214;BME280;56325;47.030;18.518;2023-02-15T13:48:11;101957.34;;;12.70;51.77
69214;BME280;56325;47.030;18.518;2023-02-15T13:51:02;101963.97;;;12.89;51.18
69214;BME280;56325;47.030;18.518;2023-02-15T13:53:59;101958.63;;;12.49;50.62
69214;BME280;56325;47.030;18.518;2023-02-15T13:56:49;101962.94;;;11.98;52.60